Time;durP1;ratioP1;P1;durP2;ratioP2;P2;SDS_P1;SDS_P2;PMS_P1;PMS_P2;Temp;Humidity;BMP_temperature;BMP_pressure;BME280_temperature;BME280_humidity;BME280_pressure;Samples;Min_cycle;Max_cycle;Signal;HPM_P1;HPM_P2
2023/07/28 00:00:29;;;;;;;2.83;2.08;;;16.40;99.90;;;16.16;100.00;96570.34;4995290;28;20041;-39
2023/07/28 00:02:55;;;;;;;4.90;1.83;;;16.40;99.90;;;16.12;100.00;96568.03;5003058;28;20029;-38
2023/07/28 00:05:20;;;;;;;2.85;1.90;;;16.30;99.90;;;16.08;100.00;96572.72;5012459;28;20064;-39
2023/07/28 00:07:46;;;;;;;2.63;1.60;;;16.30;99.90;;;16.07;100.00;96578.13;5011714;28;20037;-38
2023/07/28 00:10:12;;;;;;;3.25;2.10;;;16.30;99.90;;;16.07;100.00;96575.47;5010974;28;20759;-39
2023/07/28 00:12:39;;;;;;;2.88;1.88;;;16.30;99.90;;;16.05;100.00;96578.25;5000700;28;20149;-38
2023/07/28 00:15:05;;;;;;;2.17;1.73;;;16.30;99.90;;;16.00;100.00;96591.03;5001889;28;20520;-39
2023/07/28 00:17:31;;;;;;;3.22;2.10;;;16.20;99.90;;;15.95;100.00;96574.53;5009560;28;20038;-38
2023/07/28 00:19:56;;;;;;;2.92;1.80;;;16.20;99.90;;;15.94;100.00;96567.53;5012138;28;20033;-39
2023/07/28 00:22:22;;;;;;;3.08;1.70;;;16.20;99.90;;;15.92;100.00;96569.47;5010315;28;20071;-38
2023/07/28 00:24:48;;;;;;;2.20;2.00;;;16.10;99.90;;;15.90;100.00;96574.00;5002677;28;20030;-39
2023/07/28 00:27:14;;;;;;;3.17;2.03;;;16.10;99.90;;;15.87;100.00;96564.47;5004002;28;20029;-38
2023/07/28 00:29:41;;;;;;;2.83;2.10;;;16.10;99.90;;;15.86;100.00;96572.53;5007053;28;20041;-38
2023/07/28 00:32:07;;;;;;;2.17;1.90;;;16.10;99.90;;;15.86;100.00;96573.38;5014342;28;20033;-38
2023/07/28 00:34:33;;;;;;;5.30;1.75;;;16.10;99.90;;;15.87;100.00;96568.94;5007836;28;20472;-38
2023/07/28 00:36:58;;;;;;;3.78;1.90;;;16.10;99.90;;;15.92;100.00;96566.81;5007185;28;20037;-40
2023/07/28 00:39:24;;;;;;;2.88;1.98;;;16.10;99.90;;;15.92;100.00;96569.47;5011535;28;20409;-38
2023/07/28 00:41:50;;;;;;;3.72;1.70;;;16.20;99.90;;;15.90;100.00;96566.03;5011047;28;20029;-38
2023/07/28 00:44:17;;;;;;;2.90;1.98;;;16.10;99.90;;;15.84;100.00;96554.91;5012900;28;20374;-38
2023/07/28 00:46:43;;;;;;;2.15;1.95;;;16.10;99.90;;;15.89;100.00;96559.03;5004983;28;20072;-40
2023/07/28 00:49:09;;;;;;;2.38;1.98;;;16.20;99.90;;;15.91;100.00;96571.25;5010261;28;20492;-38
2023/07/28 00:51:37;;;;;;;4.75;2.15;;;16.10;99.90;;;15.94;100.00;96559.56;5006248;28;20651;-38
2023/07/28 00:54:05;;;;;;;2.70;2.20;;;16.20;99.90;;;16.00;100.00;96567.09;4996005;28;20497;-38
2023/07/28 00:56:31;;;;;;;2.92;2.00;;;16.20;99.90;;;16.04;100.00;96565.91;4997552;28;20031;-38
2023/07/28 00:58:57;;;;;;;5.70;2.00;;;16.20;99.90;;;16.04;100.00;96563.25;5005986;28;20113;-38
2023/07/28 01:01:23;;;;;;;2.63;1.63;;;16.30;99.90;;;16.04;100.00;96557.91;5004999;28;20022;-38
2023/07/28 01:03:51;;;;;;;1.80;1.60;;;16.30;99.90;;;16.02;100.00;96555.41;5001235;28;20055;-39
2023/07/28 01:06:40;;;;;;;2.53;1.73;;;16.30;99.90;;;16.05;100.00;96558.78;5008257;28;20580;-38
2023/07/28 01:09:19;;;;;;;2.55;2.00;;;16.30;99.90;;;15.95;100.00;96539.97;5015304;28;20112;-38
2023/07/28 01:11:58;;;;;;;2.22;2.00;;;16.30;99.90;;;16.06;100.00;96558.69;5012959;28;20738;-38
2023/07/28 01:14:25;;;;;;;2.60;1.95;;;16.30;99.90;;;16.06;100.00;96558.69;5018829;28;20547;-39
2023/07/28 01:16:51;;;;;;;2.42;1.88;;;16.30;99.90;;;16.05;100.00;96562.28;5009221;28;20265;-38
2023/07/28 01:19:20;;;;;;;3.22;1.95;;;16.30;99.90;;;15.96;100.00;96547.84;5031189;28;20483;-38
2023/07/28 01:21:54;;;;;;;4.13;1.98;;;16.30;99.90;;;16.00;100.00;96553.78;5013287;28;20068;-38
2023/07/28 01:24:44;;;;;;;2.47;1.85;;;16.20;99.90;;;15.95;100.00;96550.59;5015636;28;20052;-38
2023/07/28 01:27:10;;;;;;;3.70;1.92;;;16.20;99.90;;;15.90;100.00;96548.31;5010207;28;20034;-38
2023/07/28 01:29:36;;;;;;;3.95;1.92;;;16.10;99.90;;;15.86;100.00;96545.97;5003962;28;20056;-38
2023/07/28 01:32:04;;;;;;;2.78;1.98;;;16.10;99.90;;;15.84;100.00;96549.59;4996133;28;20132;-40
2023/07/28 01:34:29;;;;;;;2.33;1.88;;;16.10;99.90;;;15.82;100.00;96546.16;5010382;28;20504;-38
2023/07/28 01:36:55;;;;;;;2.42;1.73;;;16.10;99.90;;;15.80;100.00;96534.81;5011300;28;20034;-39
2023/07/28 01:39:21;;;;;;;2.13;1.80;;;16.00;99.90;;;15.79;100.00;96541.09;5012387;28;20029;-38
2023/07/28 01:41:47;;;;;;;2.90;2.15;;;16.00;99.90;;;15.77;100.00;96537.69;4998219;28;20033;-38
2023/07/28 01:44:12;;;;;;;3.75;1.83;;;16.00;99.90;;;15.75;100.00;96542.25;5007141;28;20053;-38
2023/07/28 01:46:39;;;;;;;3.33;2.33;;;16.00;99.90;;;15.79;100.00;96537.56;5007427;28;20033;-38
2023/07/28 01:49:05;;;;;;;2.97;1.92;;;16.00;99.90;;;15.79;100.00;96529.59;5012262;28;20034;-38
2023/07/28 01:51:30;;;;;;;2.30;1.90;;;16.00;99.90;;;15.81;100.00;96528.53;5003717;28;20045;-39
2023/07/28 01:53:56;;;;;;;3.55;1.80;;;16.10;99.90;;;15.78;100.00;96517.28;5007218;28;20049;-38
2023/07/28 01:56:22;;;;;;;3.38;2.00;;;16.10;99.90;;;15.86;100.00;96535.31;5008095;28;20162;-38
2023/07/28 01:58:47;;;;;;;2.47;1.80;;;16.10;99.90;;;15.84;100.00;96533.66;5010855;28;20037;-38
2023/07/28 02:01:13;;;;;;;2.80;2.17;;;16.10;99.90;;;15.78;100.00;96515.47;5010557;28;20430;-40
2023/07/28 02:03:39;;;;;;;2.28;1.90;;;16.10;99.90;;;15.78;100.00;96520.78;5009056;28;20037;-39
2023/07/28 02:06:05;;;;;;;3.45;2.00;;;16.00;99.90;;;15.77;100.00;96521.75;5005390;28;20052;-38
2023/07/28 02:08:30;;;;;;;2.22;1.88;;;16.00;99.90;;;15.78;100.00;96519.94;5011446;28;20436;-38
2023/07/28 02:10:56;;;;;;;2.92;2.00;;;16.10;99.90;;;15.79;100.00;96521.63;5009098;28;20032;-39
2023/07/28 02:13:22;;;;;;;3.92;2.08;;;16.00;99.90;;;15.81;100.00;96522.38;5014227;28;20045;-38
2023/07/28 02:15:47;;;;;;;2.72;2.15;;;16.00;99.90;;;15.87;100.00;96523.75;5007921;28;22781;-38
2023/07/28 02:18:13;;;;;;;5.18;1.95;;;16.10;99.90;;;15.85;100.00;96526.50;5013335;28;20415;-38
2023/07/28 02:20:39;;;;;;;4.43;1.88;;;16.10;99.90;;;15.87;100.00;96518.44;5004980;28;20037;-38
2023/07/28 02:23:05;;;;;;;2.90;1.80;;;16.10;99.90;;;15.87;100.00;96502.47;5007374;28;20065;-38
2023/07/28 02:25:31;;;;;;;3.03;2.00;;;16.10;99.90;;;15.84;100.00;96508.84;5009070;28;20029;-38
2023/07/28 02:27:57;;;;;;;3.28;1.88;;;16.10;99.90;;;15.83;100.00;96515.97;5008333;28;20029;-40
2023/07/28 02:30:23;;;;;;;2.95;2.08;;;16.10;99.90;;;15.84;100.00;96516.81;5006423;28;20034;-38
2023/07/28 02:32:48;;;;;;;2.50;2.08;;;16.10;99.90;;;15.82;100.00;96522.25;5007490;28;20099;-38
2023/07/28 02:35:14;;;;;;;2.33;1.80;;;16.10;99.90;;;15.80;100.00;96526.81;4987376;28;20963;-39
2023/07/28 02:37:40;;;;;;;2.45;1.92;;;16.10;99.90;;;15.83;100.00;96534.59;4993166;28;20075;-38
2023/07/28 02:40:07;;;;;;;2.53;2.05;;;16.10;99.90;;;15.86;100.00;96535.31;5007048;28;20405;-39
2023/07/28 02:42:35;;;;;;;2.45;1.80;;;16.10;99.90;;;15.88;100.00;96530.75;4997885;28;20025;-38
2023/07/28 02:45:01;;;;;;;3.28;2.13;;;16.10;99.90;;;15.90;100.00;96532.34;5001489;28;20037;-38
2023/07/28 02:47:26;;;;;;;2.70;1.90;;;16.20;99.90;;;15.80;100.00;96524.16;5005126;28;20037;-39
2023/07/28 02:49:52;;;;;;;4.65;1.90;;;16.20;99.90;;;15.92;100.00;96548.19;4994301;28;20068;-39
2023/07/28 02:52:18;;;;;;;1.98;1.52;;;16.20;99.90;;;15.92;100.00;96551.69;5005298;28;20030;-38
2023/07/28 02:54:43;;;;;;;2.40;2.03;;;16.20;99.90;;;15.92;100.00;96564.16;4998576;28;20092;-38
2023/07/28 02:57:09;;;;;;;4.15;1.75;;;16.20;99.90;;;15.91;100.00;96559.78;5007295;28;20182;-38
2023/07/28 02:59:35;;;;;;;2.15;1.83;;;16.20;99.90;;;15.91;100.00;96562.44;5004253;28;20188;-38
2023/07/28 03:02:01;;;;;;;2.30;1.80;;;16.20;99.90;;;15.91;100.00;96559.78;5009069;28;20037;-38
2023/07/28 03:04:26;;;;;;;2.70;1.90;;;16.20;99.90;;;15.91;100.00;96567.75;5006957;28;20029;-38
2023/07/28 03:06:52;;;;;;;2.30;1.88;;;16.20;99.90;;;15.86;100.00;96575.19;5004410;28;20432;-39
2023/07/28 03:09:18;;;;;;;2.15;1.95;;;16.20;99.90;;;15.90;100.00;96580.22;5002118;28;20037;-39
2023/07/28 03:11:43;;;;;;;2.92;2.10;;;16.20;99.90;;;15.90;100.00;96584.66;5000460;28;20481;-38
2023/07/28 03:14:10;;;;;;;3.78;2.22;;;16.20;99.90;;;15.91;100.00;96579.22;5011502;28;20033;-38
2023/07/28 03:16:35;;;;;;;2.47;1.92;;;16.20;99.90;;;15.84;100.00;96573.53;5000364;28;20461;-38
2023/07/28 03:19:01;;;;;;;2.35;2.05;;;16.20;99.90;;;15.93;100.00;96587.09;5007179;28;20025;-39
2023/07/28 03:21:31;;;;;;;3.67;2.10;;;16.20;99.90;;;15.91;100.00;96586.38;5008621;28;20017;-39
2023/07/28 03:23:56;;;;;;;3.95;2.17;;;16.20;99.90;;;15.91;100.00;96583.72;5004325;28;20520;-38
2023/07/28 03:26:22;;;;;;;2.40;2.05;;;16.20;99.90;;;15.89;100.00;96586.47;5009380;28;20205;-38
2023/07/28 03:28:48;;;;;;;2.42;2.03;;;16.10;99.90;;;15.87;100.00;96593.72;5006299;28;20076;-39
2023/07/28 03:31:13;;;;;;;2.45;2.10;;;16.20;99.90;;;15.87;100.00;96600.84;5007958;28;20036;-38
2023/07/28 03:33:39;;;;;;;3.05;2.38;;;16.20;99.90;;;15.86;100.00;96610.59;5005071;28;20068;-38
2023/07/28 03:36:05;;;;;;;4.88;2.03;;;16.10;99.90;;;15.86;100.00;96620.41;5004088;28;20571;-38
2023/07/28 03:38:30;;;;;;;4.70;2.60;;;16.20;99.90;;;15.78;100.00;96619.13;5005058;28;20457;-39
2023/07/28 03:40:56;;;;;;;2.90;2.10;;;16.10;99.90;;;15.83;100.00;96621.47;4996984;28;20038;-38
2023/07/28 03:43:22;;;;;;;3.55;2.53;;;16.10;99.90;;;15.79;100.00;96626.16;5004895;28;20125;-38
2023/07/28 03:45:48;;;;;;;3.22;2.35;;;16.10;99.90;;;15.75;100.00;96627.31;5000414;28;20021;-38
2023/07/28 03:48:13;;;;;;;2.85;2.30;;;16.10;99.90;;;15.72;100.00;96624.88;5006209;28;20483;-40
2023/07/28 03:50:39;;;;;;;2.30;1.90;;;16.00;99.90;;;15.73;100.00;96628.34;5000981;28;20612;-38
2023/07/28 03:53:05;;;;;;;2.20;1.92;;;16.00;99.90;;;15.74;100.00;96628.28;5001065;28;20121;-38
2023/07/28 03:55:30;;;;;;;3.13;2.00;;;16.00;99.90;;;15.78;100.00;96629.78;5001467;28;20481;-41
2023/07/28 03:57:56;;;;;;;4.00;2.40;;;16.10;99.90;;;15.81;100.00;96634.03;5003739;28;20037;-39
2023/07/28 04:00:22;;;;;;;2.95;2.25;;;16.10;99.90;;;15.88;100.00;96624.66;5002193;28;20540;-39
2023/07/28 04:02:48;;;;;;;5.38;2.25;;;16.20;99.90;;;15.88;100.00;96619.34;5007124;28;20029;-38
2023/07/28 04:05:13;;;;;;;2.97;2.20;;;16.20;99.90;;;15.92;100.00;96620.81;5006350;28;20041;-39
2023/07/28 04:07:39;;;;;;;2.90;2.30;;;16.20;99.90;;;15.96;100.00;96622.28;5005239;28;20029;-38
2023/07/28 04:10:05;;;;;;;2.63;2.15;;;16.20;99.90;;;16.01;100.00;96622.00;5003885;28;20041;-38
2023/07/28 04:12:31;;;;;;;3.17;2.38;;;16.20;99.90;;;16.06;100.00;96632.28;4998933;28;20041;-39
2023/07/28 04:14:56;;;;;;;3.25;2.22;;;16.30;99.90;;;16.13;100.00;96629.09;5000276;28;20091;-38
2023/07/28 04:17:22;;;;;;;3.22;2.10;;;16.40;99.90;;;16.15;100.00;96626.28;5001002;28;20033;-38
2023/07/28 04:19:48;;;;;;;2.70;2.30;;;16.40;99.90;;;16.29;100.00;96625.31;5000284;28;20061;-38
2023/07/28 04:22:16;;;;;;;5.47;2.45;;;16.50;99.90;;;16.33;100.00;96618.78;5008103;28;20029;-38
2023/07/28 04:24:41;;;;;;;4.13;2.85;;;16.60;99.90;;;16.44;100.00;96621.53;5005424;28;20461;-38
2023/07/28 04:27:07;;;;;;;3.53;2.30;;;16.70;99.90;;;16.54;100.00;96622.56;4997374;28;20195;-38
2023/07/28 04:29:33;;;;;;;2.80;2.28;;;16.80;99.90;;;16.60;100.00;96615.97;4995801;28;20026;-39
2023/07/28 04:31:58;;;;;;;3.17;2.42;;;16.80;99.90;;;16.66;100.00;96607.50;5001400;28;20032;-39
2023/07/28 04:34:24;;;;;;;4.63;2.63;;;16.90;99.90;;;16.73;100.00;96607.91;5000388;28;20033;-38
2023/07/28 04:36:50;;;;;;;3.42;2.13;;;17.00;99.90;;;16.76;100.00;96599.66;4997805;28;20398;-39
2023/07/28 04:39:15;;;;;;;3.63;2.60;;;17.00;99.90;;;16.79;100.00;96602.94;5000256;28;20289;-38
2023/07/28 04:41:41;;;;;;;2.75;2.40;;;17.00;99.90;;;16.80;100.00;96604.66;5002610;28;20040;-38
2023/07/28 04:44:07;;;;;;;3.72;2.47;;;17.00;99.90;;;16.81;100.00;96597.50;5011724;28;20395;-39
2023/07/28 04:46:32;;;;;;;3.80;2.35;;;17.10;99.90;;;16.80;100.00;96602.00;4999858;28;20033;-39
2023/07/28 04:48:58;;;;;;;3.00;2.03;;;17.10;99.90;;;16.80;100.00;96596.66;5000561;28;20340;-38
2023/07/28 04:51:24;;;;;;;3.13;2.30;;;17.10;99.90;;;16.82;100.00;96609.03;5002937;28;20033;-39
2023/07/28 04:53:49;;;;;;;3.03;2.28;;;17.10;99.90;;;16.70;100.00;96600.13;5005991;28;20513;-39
2023/07/28 04:56:15;;;;;;;2.55;2.00;;;17.00;99.90;;;16.77;100.00;96617.34;5007831;28;20090;-38
2023/07/28 04:58:41;;;;;;;2.58;2.03;;;17.00;99.90;;;16.71;100.00;96607.19;5008287;28;20294;-39
2023/07/28 05:01:08;;;;;;;4.78;2.83;;;17.00;99.90;;;16.70;100.00;96613.44;5014613;28;20649;-38
2023/07/28 05:03:34;;;;;;;2.95;2.28;;;16.90;99.90;;;16.66;100.00;96606.66;5011830;28;20061;-39
2023/07/28 05:06:00;;;;;;;2.58;1.92;;;16.90;99.90;;;16.63;100.00;96622.84;5004632;28;20038;-38
2023/07/28 05:08:26;;;;;;;4.45;2.28;;;16.90;99.90;;;16.60;100.00;96622.13;5003565;28;20539;-38
2023/07/28 05:10:51;;;;;;;2.47;2.10;;;16.80;99.90;;;16.55;100.00;96626.94;5004981;28;20030;-38
2023/07/28 05:13:17;;;;;;;3.92;2.10;;;16.80;99.90;;;16.56;100.00;96635.75;5008721;28;20040;-38
2023/07/28 05:15:42;;;;;;;2.13;1.88;;;16.80;99.90;;;16.55;100.00;96632.25;5004781;28;20404;-39
2023/07/28 05:18:08;;;;;;;2.58;2.10;;;16.80;99.90;;;16.55;100.00;96634.06;5003832;28;20029;-38
2023/07/28 05:20:34;;;;;;;3.53;2.00;;;16.80;99.90;;;16.51;100.00;96638.78;5003214;28;20033;-38
2023/07/28 05:23:00;;;;;;;3.08;2.20;;;16.80;99.90;;;16.53;100.00;96642.16;5012538;28;20037;-39
2023/07/28 05:25:25;;;;;;;4.20;2.40;;;16.70;99.90;;;16.54;100.00;96649.16;5008841;28;20035;-38
2023/07/28 05:27:51;;;;;;;3.05;2.15;;;16.80;99.90;;;16.56;100.00;96649.06;5003286;28;20037;-38
2023/07/28 05:30:16;;;;;;;2.72;2.30;;;16.80;99.90;;;16.57;100.00;96646.28;5009656;28;20579;-38
2023/07/28 05:32:42;;;;;;;5.40;2.72;;;16.80;99.90;;;16.60;100.00;96643.41;5014487;28;20033;-39
2023/07/28 05:35:08;;;;;;;2.92;2.28;;;16.80;99.90;;;16.66;100.00;96651.91;5016264;28;20237;-38
2023/07/28 05:37:34;;;;;;;3.58;2.80;;;16.90;99.90;;;16.71;100.00;96647.09;5012115;28;20091;-39
2023/07/28 05:39:59;;;;;;;3.78;2.50;;;16.90;99.90;;;16.76;100.00;96647.59;5012049;28;20489;-38
2023/07/28 05:42:26;;;;;;;2.63;2.28;;;17.00;99.90;;;16.73;100.00;96638.03;5008430;28;20056;-39
2023/07/28 05:44:53;;;;;;;3.65;2.65;;;17.10;99.90;;;16.85;100.00;96652.28;5012978;28;20064;-38
2023/07/28 05:47:20;;;;;;;3.58;2.35;;;17.10;99.90;;;16.93;100.00;96657.88;5009544;28;20030;-39
2023/07/28 05:49:46;;;;;;;3.85;2.85;;;17.20;99.90;;;16.94;100.00;96654.28;5009094;28;20105;-39
2023/07/28 05:52:12;;;;;;;3.60;2.65;;;17.20;99.90;;;16.97;100.00;96656.69;5000740;28;20033;-38
2023/07/28 05:54:37;;;;;;;5.60;3.15;;;17.20;99.90;;;17.02;100.00;96655.50;5013138;28;20033;-38
2023/07/28 05:57:03;;;;;;;4.75;2.47;;;17.20;99.90;;;17.06;100.00;96655.16;5019936;28;20232;-39
2023/07/28 05:59:29;;;;;;;4.97;3.40;;;17.30;99.90;;;17.10;100.00;96661.97;5008678;28;20438;-39
2023/07/28 06:01:55;;;;;;;3.78;2.90;;;17.30;99.90;;;17.12;100.00;96659.16;5005390;28;20037;-42
2023/07/28 06:04:21;;;;;;;3.08;2.50;;;17.40;99.90;;;17.12;100.00;96665.38;5009998;28;20037;-38
2023/07/28 06:06:47;;;;;;;4.88;2.85;;;17.40;99.90;;;17.11;100.00;96660.16;5009882;28;20064;-38
2023/07/28 06:09:13;;;;;;;3.95;2.20;;;17.40;99.90;;;17.10;100.00;96677.06;4996365;28;20045;-38
2023/07/28 06:11:39;;;;;;;5.05;3.20;;;17.40;99.90;;;17.07;100.00;96667.50;5010603;28;20076;-38
2023/07/28 06:14:05;;;;;;;4.55;2.67;;;17.30;99.90;;;17.05;100.00;96674.78;5002954;28;20060;-40
2023/07/28 06:16:31;;;;;;;4.35;2.88;;;17.30;99.90;;;17.05;100.00;96671.25;5007047;28;20055;-40
2023/07/28 06:18:57;;;;;;;3.30;2.60;;;17.30;99.90;;;17.05;100.00;96671.25;5017603;28;20512;-38
2023/07/28 06:21:23;;;;;;;4.10;2.80;;;17.30;99.90;;;17.08;100.00;96671.03;5013714;28;20040;-38
2023/07/28 06:23:48;;;;;;;3.70;2.72;;;17.30;99.90;;;17.10;100.00;96671.75;5021420;28;20102;-40
2023/07/28 06:26:14;;;;;;;3.25;2.80;;;17.30;99.90;;;17.11;100.00;96668.13;5016226;28;20025;-40
2023/07/28 06:28:40;;;;;;;2.78;2.30;;;17.30;99.90;;;17.15;100.00;96674.94;5018394;28;20030;-38
2023/07/28 06:31:05;;;;;;;4.60;2.40;;;17.40;99.90;;;17.17;100.00;96675.66;5016004;28;20472;-38
2023/07/28 06:33:31;;;;;;;2.55;2.35;;;17.40;99.90;;;17.19;100.00;96679.03;5011713;28;20066;-38
2023/07/28 06:35:57;;;;;;;4.07;2.60;;;17.40;99.90;;;17.14;100.00;96666.09;5020780;28;20437;-38
2023/07/28 06:38:23;;;;;;;2.92;2.30;;;17.50;99.90;;;17.25;100.00;96686.59;5009821;28;20091;-38
2023/07/28 06:40:48;;;;;;;2.30;2.10;;;17.50;99.90;;;17.26;100.00;96690.09;5013183;28;20030;-38
2023/07/28 06:43:14;;;;;;;3.88;2.50;;;17.50;99.90;;;17.27;100.00;96692.66;5009033;28;20032;-38
2023/07/28 06:45:40;;;;;;;4.80;2.90;;;17.50;99.90;;;17.28;100.00;96702.38;5007869;28;20068;-39
2023/07/28 06:48:06;;;;;;;2.50;2.15;;;17.50;99.90;;;17.33;100.00;96697.50;5015929;28;20026;-38
2023/07/28 06:50:32;;;;;;;3.95;2.50;;;17.60;99.90;;;17.47;100.00;96683.16;5014702;28;20306;-38
2023/07/28 06:52:58;;;;;;;3.60;2.70;;;17.70;99.90;;;17.65;100.00;96691.56;5012474;28;20486;-38
2023/07/28 06:55:23;;;;;;;3.97;2.58;;;17.90;99.90;;;17.84;100.00;96699.00;5015139;28;20088;-39
2023/07/28 06:57:49;;;;;;;4.32;3.10;;;18.00;99.90;;;17.93;100.00;96689.47;5008151;28;20037;-38
2023/07/28 07:00:17;;;;;;;5.13;3.25;;;18.20;99.90;;;18.07;100.00;96704.38;5001829;28;20048;-40
2023/07/28 07:02:43;;;;;;;5.43;2.78;;;18.40;99.90;;;18.20;100.00;96694.44;5010872;28;20034;-38
2023/07/28 07:05:09;;;;;;;4.32;2.55;;;18.40;99.90;;;18.31;100.00;96696.28;5013782;28;20037;-39
2023/07/28 07:07:35;;;;;;;7.20;3.72;;;18.60;99.90;;;18.27;100.00;96695.66;5016833;28;20041;-38
2023/07/28 07:10:00;;;;;;;7.05;3.65;;;18.60;99.90;;;18.41;100.00;96699.91;5015159;28;20564;-38
2023/07/28 07:12:26;;;;;;;7.43;3.55;;;18.70;99.90;;;18.49;100.00;96710.81;5010848;28;20643;-38
2023/07/28 07:14:52;;;;;;;5.75;3.17;;;18.70;99.90;;;18.59;100.00;96704.72;5009670;28;20044;-39
2023/07/28 07:17:18;;;;;;;5.60;3.80;;;18.80;99.90;;;18.64;100.00;96702.53;5016345;28;20041;-38
2023/07/28 07:19:43;;;;;;;4.15;3.13;;;18.90;99.90;;;18.80;100.00;96708.34;5017005;28;20226;-38
2023/07/28 07:22:09;;;;;;;4.18;2.85;;;19.00;99.90;;;18.93;100.00;96713.53;5012926;28;20080;-38
2023/07/28 07:24:35;;;;;;;4.88;2.80;;;19.20;99.90;;;19.01;100.00;96710.28;5007891;28;20501;-38
2023/07/28 07:27:01;;;;;;;6.70;3.63;;;19.30;99.90;;;19.06;100.00;96719.59;5018025;28;20036;-38
2023/07/28 07:29:26;;;;;;;4.85;3.25;;;19.30;99.90;;;19.15;100.00;96723.34;5008787;28;20504;-39
2023/07/28 07:31:55;;;;;;;6.80;3.10;;;19.40;99.90;;;19.21;100.00;96722.81;5011252;28;20072;-38
2023/07/28 07:34:24;;;;;;;3.33;2.85;;;19.50;99.90;;;19.32;100.00;96718.41;5008714;28;20040;-38
2023/07/28 07:36:50;;;;;;;3.92;3.00;;;19.50;99.90;;;19.53;100.00;96724.66;5015966;28;20132;-39
2023/07/28 07:39:16;;;;;;;3.90;2.90;;;19.70;99.90;;;19.83;100.00;96718.56;5004336;28;20038;-38
2023/07/28 07:41:41;;;;;;;4.05;2.50;;;20.10;99.90;;;20.19;100.00;96719.06;5015875;28;20040;-39
2023/07/28 07:44:07;;;;;;;3.67;2.70;;;20.50;99.90;;;20.48;100.00;96721.00;5017131;28;20121;-38
2023/07/28 07:46:33;;;;;;;3.65;2.85;;;20.80;99.90;;;20.64;100.00;96728.59;5005345;28;20574;-38
2023/07/28 07:48:59;;;;;;;4.38;2.80;;;21.00;99.90;;;20.72;100.00;96735.94;5011519;28;20033;-39
2023/07/28 07:51:24;;;;;;;4.43;2.78;;;21.00;99.90;;;20.67;100.00;96736.31;5006764;28;20099;-39
2023/07/28 07:53:50;;;;;;;4.18;2.80;;;20.90;99.90;;;20.59;100.00;96731.63;5010359;28;20099;-38
2023/07/28 07:56:16;;;;;;;4.60;2.80;;;20.80;99.90;;;20.54;100.00;96739.22;5007575;28;20052;-39
2023/07/28 07:58:42;;;;;;;3.78;2.88;;;20.80;99.90;;;20.53;100.00;96733.97;5007137;28;20115;-39
2023/07/28 08:01:08;;;;;;;3.75;2.80;;;20.80;99.90;;;20.53;100.00;96737.53;5006866;28;20722;-38
2023/07/28 08:03:36;;;;;;;5.28;3.35;;;20.80;99.90;;;20.54;100.00;96741.03;4998051;28;20033;-38
2023/07/28 08:06:02;;;;;;;3.75;2.47;;;20.80;99.90;;;20.62;100.00;96745.75;5001111;28;20014;-39
2023/07/28 08:08:28;;;;;;;3.50;2.80;;;20.90;99.90;;;20.67;100.00;96741.69;5005125;28;20619;-38
2023/07/28 08:10:53;;;;;;;4.47;2.60;;;20.90;99.90;;;20.67;100.00;96740.84;5012091;28;20061;-39
2023/07/28 08:13:19;;;;;;;3.10;2.38;;;21.00;99.90;;;20.70;100.00;96748.63;5017233;28;20029;-38
2023/07/28 08:15:46;;;;;;;3.45;2.20;;;20.90;99.90;;;20.60;100.00;96751.22;5015614;28;20037;-38
2023/07/28 08:18:13;;;;;;;5.15;3.03;;;20.90;99.90;;;20.52;100.00;96762.59;5023728;28;20033;-39
2023/07/28 08:20:39;;;;;;;4.18;2.78;;;20.70;99.90;;;20.41;100.00;96766.22;5016866;28;20027;-39
2023/07/28 08:23:05;;;;;;;3.65;2.60;;;20.60;99.90;;;20.28;100.00;96770.09;5015832;28;20700;-39
2023/07/28 08:25:31;;;;;;;3.72;2.38;;;20.50;99.90;;;20.10;100.00;96761.81;5012064;28;20029;-38
2023/07/28 08:27:56;;;;;;;3.60;2.67;;;20.30;99.90;;;20.02;100.00;96771.34;5019092;28;20116;-38
2023/07/28 08:30:22;;;;;;;4.35;2.40;;;20.20;99.90;;;19.91;100.00;96775.94;5019930;28;20045;-38
2023/07/28 08:32:49;;;;;;;2.58;2.13;;;20.10;99.90;;;19.84;100.00;96772.91;5017957;28;20374;-39
2023/07/28 08:35:15;;;;;;;3.25;2.08;;;20.10;99.90;;;19.82;100.00;96780.22;5013597;28;20033;-38
2023/07/28 08:37:40;;;;;;;3.40;2.45;;;20.00;99.90;;;19.80;100.00;96776.84;5014082;28;21976;-39
2023/07/28 08:40:07;;;;;;;2.92;2.60;;;20.00;99.90;;;19.82;100.00;96782.91;5016317;28;20373;-39
2023/07/28 08:42:40;;;;;;;2.50;2.13;;;20.00;99.90;;;19.77;100.00;96788.63;5020706;28;20037;-38
2023/07/28 08:45:10;;;;;;;3.47;2.45;;;20.00;99.90;;;19.79;100.00;96785.81;5013128;28;20057;-37
2023/07/28 08:47:37;;;;;;;2.63;2.08;;;20.00;99.90;;;19.87;100.00;96782.53;5016765;28;20059;-39
2023/07/28 08:50:04;;;;;;;2.63;1.98;;;20.10;99.90;;;20.03;100.00;96785.59;5005980;28;20036;-38
2023/07/28 08:52:29;;;;;;;3.78;2.30;;;20.20;99.90;;;20.17;100.00;96779.91;5011756;28;20053;-39
2023/07/28 08:54:55;;;;;;;4.28;2.20;;;20.40;99.90;;;20.45;100.00;96792.75;5011065;28;20486;-38
2023/07/28 08:57:21;;;;;;;3.45;2.30;;;20.70;99.90;;;20.73;100.00;96780.50;5013987;28;20037;-38
2023/07/28 08:59:48;;;;;;;3.42;2.08;;;21.00;99.90;;;20.96;100.00;96792.72;5013895;28;20021;-38
2023/07/28 09:02:19;;;;;;;2.30;1.92;;;21.20;99.90;;;21.09;100.00;96797.81;5015685;28;20021;-39
2023/07/28 09:04:46;;;;;;;2.80;2.08;;;21.30;99.90;;;21.06;100.00;96800.78;5013568;28;20026;-38
2023/07/28 09:07:12;;;;;;;4.75;2.28;;;21.20;99.90;;;21.02;100.00;96802.03;5015453;28;21060;-38
2023/07/28 09:09:42;;;;;;;3.53;2.40;;;21.20;99.90;;;20.99;100.00;96796.94;5014417;28;20478;-40
2023/07/28 09:12:08;;;;;;;2.30;1.83;;;21.20;99.90;;;21.10;100.00;96795.97;5013365;28;20496;-41
2023/07/28 09:14:38;;;;;;;4.82;2.20;;;21.30;99.90;;;21.20;100.00;96801.38;5011727;28;20056;-39
2023/07/28 09:17:16;;;;;;;2.67;2.00;;;21.40;99.90;;;21.21;100.00;96787.84;5018154;28;20041;-38
2023/07/28 09:19:56;;;;;;;2.88;2.10;;;21.50;99.90;;;21.30;100.00;96803.09;5018537;28;20038;-38
2023/07/28 09:22:23;;;;;;;2.90;2.08;;;21.50;99.90;;;21.36;100.00;96799.84;5020982;28;20029;-39
2023/07/28 09:24:50;;;;;;;3.67;2.10;;;21.60;99.90;;;21.51;100.00;96799.47;5015885;28;20109;-38
2023/07/28 09:27:26;;;;;;;2.35;1.73;;;21.70;99.90;;;21.74;100.00;96805.44;5016711;28;20047;-38
2023/07/28 09:29:57;;;;;;;3.00;2.00;;;22.00;99.90;;;21.95;100.00;96804.44;5017489;28;20036;-38
2023/07/28 09:32:30;;;;;;;2.47;2.03;;;22.20;99.90;;;22.10;100.00;96787.75;5019090;28;20037;-40
2023/07/28 09:35:10;;;;;;;2.67;1.90;;;22.40;99.90;;;22.46;100.00;96797.88;5012150;28;20049;-38
2023/07/28 09:37:45;;;;;;;3.58;2.35;;;22.70;99.90;;;22.81;100.00;96796.38;5018732;28;20520;-38
2023/07/28 09:40:13;;;;;;;3.97;2.13;;;23.10;99.90;;;23.12;100.00;96798.81;5014096;28;20025;-39
2023/07/28 09:42:45;;;;;;;2.45;1.77;;;23.30;99.90;;;23.27;100.00;96797.28;5015254;28;20485;-40
2023/07/28 09:45:13;;;;;;;3.10;2.10;;;23.50;99.90;;;23.12;100.00;96785.34;5018032;28;20394;-40
2023/07/28 09:47:39;;;;;;;2.10;1.90;;;23.50;99.90;;;23.28;100.00;96790.91;5016156;28;20131;-41
2023/07/28 09:50:08;;;;;;;6.28;2.75;;;23.50;99.90;;;23.33;100.00;96790.44;5015114;28;20033;-38
2023/07/28 09:52:38;;;;;;;5.03;2.95;;;23.60;99.90;;;23.16;100.00;96790.25;5005919;28;20044;-38
2023/07/28 09:55:10;;;;;;;6.20;3.58;;;23.40;99.90;;;22.92;100.00;96793.47;5003186;28;20033;-38
2023/07/28 09:57:41;;;;;;;5.53;3.72;;;23.30;99.90;;;22.76;100.00;96793.28;5020271;28;20053;-38
2023/07/28 10:00:13;;;;;;;4.82;2.90;;;23.10;99.90;;;22.60;100.00;96789.38;5011478;28;20282;-38
2023/07/28 10:02:40;;;;;;;5.07;3.65;;;22.90;99.90;;;22.49;100.00;96785.00;5013633;28;20206;-38
2023/07/28 10:05:07;;;;;;;6.10;3.42;;;22.80;99.90;;;22.55;100.00;96791.63;5009875;28;20040;-38
2023/07/28 10:07:35;;;;;;;3.15;2.58;;;22.80;99.90;;;22.61;100.00;96801.81;5019770;28;20029;-38
2023/07/28 10:10:08;;;;;;;4.47;2.88;;;22.80;99.90;;;22.52;100.00;96797.28;5018814;28;20115;-38